Time;durP1;ratioP1;P1;durP2;ratioP2;P2;SDS_P1;SDS_P2;PMS_P1;PMS_P2;Temp;Humidity;BMP_temperature;BMP_pressure;BME280_temperature;BME280_humidity;BME280_pressure;Samples;Min_cycle;Max_cycle;Signal;HPM_P1;HPM_P2
2023/12/20 00:01:50;;;;;;;;;;;8.10;95.20;;;;;;6246429;23;19899;-79
2023/12/20 00:04:15;;;;;;;;;;;8.00;95.10;;;;;;6246676;23;20257;-78
2023/12/20 00:06:41;;;;;;;;;;;8.00;95.20;;;;;;6246102;23;20321;-78
2023/12/20 00:09:07;;;;;;;;;;;8.00;95.20;;;;;;6246233;23;19903;-79
2023/12/20 00:11:32;;;;;;;;;;;7.90;95.30;;;;;;6247086;23;19899;-79
2023/12/20 00:13:58;;;;;;;;;;;7.90;95.20;;;;;;6246693;23;20205;-79
2023/12/20 00:16:23;;;;;;;;;;;7.90;95.20;;;;;;6246731;23;19931;-79
2023/12/20 00:18:49;;;;;;;;;;;7.90;95.30;;;;;;6246330;23;20194;-79
2023/12/20 00:21:14;;;;;;;;;;;7.90;95.20;;;;;;6246286;23;20226;-80
2023/12/20 00:23:40;;;;;;;;;;;7.90;95.10;;;;;;6247030;23;19900;-80
2023/12/20 00:26:05;;;;;;;;;;;7.90;95.10;;;;;;6246436;23;19909;-80
2023/12/20 00:28:31;;;;;;;;;;;7.90;95.20;;;;;;6246618;23;20308;-80
2023/12/20 00:30:57;;;;;;;;;;;7.90;95.20;;;;;;6246521;23;19982;-79
2023/12/20 00:33:22;;;;;;;;;;;7.90;95.10;;;;;;6246206;23;19907;-79
2023/12/20 00:35:48;;;;;;;;;;;7.90;95.10;;;;;;6246669;23;20409;-79
2023/12/20 00:38:14;;;;;;;;;;;7.90;95.10;;;;;;6246607;23;19900;-79
2023/12/20 00:40:40;;;;;;;;;;;7.90;95.10;;;;;;6246535;23;19903;-79
2023/12/20 00:43:05;;;;;;;;;;;7.90;95.10;;;;;;6245958;23;20349;-79
2023/12/20 00:45:31;;;;;;;;;;;7.90;95.10;;;;;;6246413;23;19899;-79
2023/12/20 00:47:56;;;;;;;;;;;7.80;95.10;;;;;;6246056;23;19906;-80
2023/12/20 00:50:22;;;;;;;;;;;7.90;95.10;;;;;;6246596;23;19950;-80
2023/12/20 00:52:48;;;;;;;;;;;7.90;95.10;;;;;;6246070;23;20384;-80
2023/12/20 00:55:13;;;;;;;;;;;7.80;95.10;;;;;;6246497;23;19923;-79
2023/12/20 00:57:39;;;;;;;;;;;7.80;95.00;;;;;;6246197;23;19971;-80
2023/12/20 01:00:05;;;;;;;;;;;7.80;95.00;;;;;;6246084;23;19903;-79
2023/12/20 01:02:31;;;;;;;;;;;7.80;95.10;;;;;;6245931;23;19978;-80
2023/12/20 01:04:56;;;;;;;;;;;7.80;95.20;;;;;;6246444;23;19900;-80
2023/12/20 01:07:22;;;;;;;;;;;7.70;95.10;;;;;;6244948;23;19907;-80
2023/12/20 01:09:47;;;;;;;;;;;7.70;95.20;;;;;;6246809;23;19940;-80
2023/12/20 01:12:13;;;;;;;;;;;7.60;95.10;;;;;;6246146;23;19900;-80
2023/12/20 01:14:39;;;;;;;;;;;7.40;95.20;;;;;;6246090;23;19900;-80
2023/12/20 01:17:04;;;;;;;;;;;7.40;95.20;;;;;;6246482;23;19899;-80
2023/12/20 01:19:30;;;;;;;;;;;7.30;95.20;;;;;;6246172;23;19929;-80
2023/12/20 01:21:56;;;;;;;;;;;7.20;95.30;;;;;;6246024;23;19934;-80
2023/12/20 01:24:21;;;;;;;;;;;7.20;95.50;;;;;;6246060;23;19907;-81
2023/12/20 01:26:47;;;;;;;;;;;7.20;95.50;;;;;;6246496;23;19990;-80
2023/12/20 01:29:14;;;;;;;;;;;7.20;95.50;;;;;;6246555;23;19953;-80
2023/12/20 01:31:40;;;;;;;;;;;7.30;95.50;;;;;;6246193;23;20318;-81
2023/12/20 01:34:06;;;;;;;;;;;7.30;95.40;;;;;;6219457;23;19975;-80
2023/12/20 01:36:31;;;;;;;;;;;7.30;95.30;;;;;;6245829;23;19934;-81
2023/12/20 01:38:57;;;;;;;;;;;7.30;95.30;;;;;;6246308;23;20381;-81
2023/12/20 01:41:22;;;;;;;;;;;7.30;95.30;;;;;;6246279;23;19899;-81
2023/12/20 01:43:48;;;;;;;;;;;7.30;95.30;;;;;;6246052;23;19978;-81
2023/12/20 01:46:14;;;;;;;;;;;7.30;95.30;;;;;;6245703;23;19900;-81
2023/12/20 01:48:40;;;;;;;;;;;7.30;95.20;;;;;;6246429;23;19906;-81
2023/12/20 01:51:05;;;;;;;;;;;7.30;95.20;;;;;;6219562;23;19903;-81
2023/12/20 01:53:32;;;;;;;;;;;7.20;95.20;;;;;;6246306;23;19900;-81
2023/12/20 01:55:58;;;;;;;;;;;7.30;95.30;;;;;;6245703;23;19953;-81
2023/12/20 01:58:24;;;;;;;;;;;7.30;95.20;;;;;;6245864;23;19915;-81
2023/12/20 02:00:50;;;;;;;;;;;7.30;95.20;;;;;;6245895;23;20233;-81
2023/12/20 02:03:16;;;;;;;;;;;7.30;95.10;;;;;;6219209;23;19958;-81
2023/12/20 02:05:42;;;;;;;;;;;7.30;95.10;;;;;;6246285;23;19986;-81
2023/12/20 02:08:07;;;;;;;;;;;7.30;95.10;;;;;;6245791;23;19906;-81
2023/12/20 02:10:34;;;;;;;;;;;7.30;95.10;;;;;;6246073;23;19983;-81
2023/12/20 02:12:59;;;;;;;;;;;7.30;95.10;;;;;;6245956;23;19949;-81
2023/12/20 02:15:25;;;;;;;;;;;7.30;95.00;;;;;;6245754;23;19974;-81
2023/12/20 02:17:51;;;;;;;;;;;7.30;95.00;;;;;;6245935;23;19900;-81
2023/12/20 02:20:16;;;;;;;;;;;7.20;95.00;;;;;;6244507;23;20314;-81
2023/12/20 02:22:42;;;;;;;;;;;7.20;95.10;;;;;;6245475;23;19974;-81
2023/12/20 02:25:08;;;;;;;;;;;7.20;95.20;;;;;;6246199;23;19907;-80
2023/12/20 02:27:34;;;;;;;;;;;7.20;95.20;;;;;;6245427;23;19923;-79
2023/12/20 02:29:59;;;;;;;;;;;7.30;95.20;;;;;;6245654;23;19931;-79
2023/12/20 02:32:26;;;;;;;;;;;7.30;95.20;;;;;;6247062;23;19907;-79
2023/12/20 02:34:51;;;;;;;;;;;7.20;95.10;;;;;;6247818;23;19906;-79
2023/12/20 02:37:17;;;;;;;;;;;7.30;95.10;;;;;;6247602;23;19942;-80
2023/12/20 02:39:43;;;;;;;;;;;7.30;95.10;;;;;;6247798;23;19904;-80
2023/12/20 02:42:08;;;;;;;;;;;7.30;95.10;;;;;;6247583;23;19906;-80
2023/12/20 02:44:34;;;;;;;;;;;7.30;95.10;;;;;;6247522;23;19899;-80
2023/12/20 02:46:59;;;;;;;;;;;7.30;95.10;;;;;;6247532;23;20276;-80
2023/12/20 02:49:25;;;;;;;;;;;7.30;95.00;;;;;;6247854;23;19900;-81
2023/12/20 02:51:50;;;;;;;;;;;7.30;95.00;;;;;;6247618;23;19899;-80
2023/12/20 02:54:16;;;;;;;;;;;7.40;95.00;;;;;;6247738;23;19906;-80
2023/12/20 02:56:41;;;;;;;;;;;7.30;94.90;;;;;;6247754;23;19908;-80
2023/12/20 02:59:08;;;;;;;;;;;7.40;95.00;;;;;;6247928;23;19993;-80
2023/12/20 03:01:34;;;;;;;;;;;7.40;95.00;;;;;;6247633;23;19982;-80
2023/12/20 03:04:00;;;;;;;;;;;7.40;94.90;;;;;;6247760;23;19942;-80
2023/12/20 03:06:25;;;;;;;;;;;7.40;94.90;;;;;;6247656;23;19904;-81
2023/12/20 03:08:51;;;;;;;;;;;7.40;94.80;;;;;;6247560;23;20352;-80
2023/12/20 03:11:16;;;;;;;;;;;7.40;94.70;;;;;;6247733;23;19906;-81
2023/12/20 03:13:42;;;;;;;;;;;7.50;94.50;;;;;;6247565;23;19904;-80
2023/12/20 03:16:08;;;;;;;;;;;7.50;94.30;;;;;;6247771;23;19978;-81
2023/12/20 03:18:33;;;;;;;;;;;7.50;94.20;;;;;;6247665;23;19972;-81
2023/12/20 03:20:59;;;;;;;;;;;7.50;94.10;;;;;;6247604;23;20302;-80
2023/12/20 03:23:26;;;;;;;;;;;7.50;94.10;;;;;;6248120;23;19926;-81
2023/12/20 03:25:51;;;;;;;;;;;7.60;94.10;;;;;;6247395;23;19921;-81
2023/12/20 03:28:17;;;;;;;;;;;7.50;94.00;;;;;;6247307;23;20443;-81
2023/12/20 03:30:42;;;;;;;;;;;7.50;94.00;;;;;;6247322;23;19957;-81
2023/12/20 03:33:08;;;;;;;;;;;7.50;94.00;;;;;;6247597;23;19914;-81
2023/12/20 03:35:34;;;;;;;;;;;7.50;93.90;;;;;;6247162;23;20244;-82
2023/12/20 03:38:00;;;;;;;;;;;7.40;93.90;;;;;;6247238;23;19903;-81
2023/12/20 03:40:25;;;;;;;;;;;7.40;93.80;;;;;;6247007;23;19949;-81
2023/12/20 03:42:51;;;;;;;;;;;7.40;93.80;;;;;;6246389;23;19899;-81
2023/12/20 03:45:17;;;;;;;;;;;7.40;93.70;;;;;;6219842;23;19942;-81
2023/12/20 03:47:42;;;;;;;;;;;7.40;93.70;;;;;;6220309;23;19925;-82
2023/12/20 03:50:08;;;;;;;;;;;7.40;93.70;;;;;;6246836;23;19899;-82
2023/12/20 03:52:33;;;;;;;;;;;7.40;93.70;;;;;;6247224;23;19907;-81
2023/12/20 03:54:59;;;;;;;;;;;7.30;93.70;;;;;;6246846;23;19907;-82
2023/12/20 03:57:24;;;;;;;;;;;7.40;93.70;;;;;;6247068;23;19919;-81
2023/12/20 03:59:50;;;;;;;;;;;7.40;93.80;;;;;;6246861;23;19961;-81
2023/12/20 04:02:17;;;;;;;;;;;7.30;93.70;;;;;;6246688;23;19903;-82
2023/12/20 04:04:43;;;;;;;;;;;7.40;93.80;;;;;;6246713;23;19899;-81
2023/12/20 04:07:09;;;;;;;;;;;7.30;93.70;;;;;;6247065;23;20345;-80
2023/12/20 04:09:34;;;;;;;;;;;7.30;93.70;;;;;;6246830;23;19899;-80
2023/12/20 04:12:00;;;;;;;;;;;7.30;93.80;;;;;;6245599;23;19926;-79
2023/12/20 04:14:26;;;;;;;;;;;7.30;93.80;;;;;;6246490;23;19899;-80
2023/12/20 04:16:52;;;;;;;;;;;7.30;93.80;;;;;;6246760;23;19973;-79
2023/12/20 04:19:17;;;;;;;;;;;7.30;93.80;;;;;;6247304;23;19930;-79
2023/12/20 04:21:43;;;;;;;;;;;7.20;93.70;;;;;;6246374;23;20262;-78
2023/12/20 04:24:08;;;;;;;;;;;7.20;93.70;;;;;;6246617;23;19900;-79
2023/12/20 04:26:34;;;;;;;;;;;7.20;93.70;;;;;;6246628;23;19922;-80
2023/12/20 04:28:59;;;;;;;;;;;7.20;93.80;;;;;;6246424;23;19982;-80
2023/12/20 04:31:25;;;;;;;;;;;7.20;93.70;;;;;;6246691;23;19899;-80
2023/12/20 04:33:50;;;;;;;;;;;7.20;93.80;;;;;;6246401;23;19899;-80
2023/12/20 04:36:16;;;;;;;;;;;7.20;93.80;;;;;;6245975;23;20018;-80
2023/12/20 04:38:41;;;;;;;;;;;7.20;93.80;;;;;;6219354;23;19900;-80
2023/12/20 04:41:07;;;;;;;;;;;7.20;93.80;;;;;;6246129;23;19911;-81
2023/12/20 04:43:33;;;;;;;;;;;7.20;93.80;;;;;;6246061;23;19900;-81
2023/12/20 04:45:58;;;;;;;;;;;7.20;93.80;;;;;;6246215;23;19974;-81
2023/12/20 04:48:24;;;;;;;;;;;7.20;93.90;;;;;;6219497;23;19900;-80
2023/12/20 04:50:49;;;;;;;;;;;7.20;93.90;;;;;;6247004;23;19924;-81
2023/12/20 04:53:15;;;;;;;;;;;7.20;93.90;;;;;;6246741;23;19931;-80
2023/12/20 04:55:40;;;;;;;;;;;7.20;94.00;;;;;;6245478;23;19899;-81
2023/12/20 04:58:06;;;;;;;;;;;7.20;94.00;;;;;;6245737;23;20237;-80
2023/12/20 05:00:31;;;;;;;;;;;7.20;94.00;;;;;;6244693;23;20214;-81
2023/12/20 05:02:57;;;;;;;;;;;7.20;94.00;;;;;;6245960;23;20654;-81
2023/12/20 05:05:22;;;;;;;;;;;7.20;93.90;;;;;;6245667;23;19903;-81
2023/12/20 05:07:48;;;;;;;;;;;7.20;93.90;;;;;;6246496;23;19969;-81
2023/12/20 05:10:13;;;;;;;;;;;7.20;93.90;;;;;;6246248;23;19899;-81
2023/12/20 05:12:39;;;;;;;;;;;7.10;93.80;;;;;;6245878;23;19906;-81
2023/12/20 05:15:06;;;;;;;;;;;7.10;93.90;;;;;;6245661;23;19899;-81
2023/12/20 05:17:31;;;;;;;;;;;7.20;93.90;;;;;;6246319;23;20207;-81
2023/12/20 05:19:57;;;;;;;;;;;7.20;93.90;;;;;;6246470;23;19910;-82
2023/12/20 05:22:22;;;;;;;;;;;7.20;93.90;;;;;;6219200;23;19899;-79
2023/12/20 05:24:48;;;;;;;;;;;7.10;93.80;;;;;;6245422;23;19900;-80
2023/12/20 05:27:13;;;;;;;;;;;7.10;93.80;;;;;;6245637;23;19978;-80
2023/12/20 05:29:39;;;;;;;;;;;7.10;93.80;;;;;;6246223;23;19907;-80
2023/12/20 05:32:05;;;;;;;;;;;7.10;93.90;;;;;;6246007;23;19900;-79
2023/12/20 05:34:31;;;;;;;;;;;7.00;93.80;;;;;;6246192;23;19900;-80
2023/12/20 05:36:57;;;;;;;;;;;6.80;93.90;;;;;;6245308;23;19900;-79
2023/12/20 05:39:22;;;;;;;;;;;6.70;94.10;;;;;;6245486;23;19994;-81
2023/12/20 05:41:48;;;;;;;;;;;6.70;94.10;;;;;;6244630;23;19942;-81
2023/12/20 05:44:14;;;;;;;;;;;6.70;94.10;;;;;;6245832;23;19927;-81
2023/12/20 05:46:40;;;;;;;;;;;6.80;94.20;;;;;;6245718;23;19935;-81
2023/12/20 05:49:05;;;;;;;;;;;6.80;94.30;;;;;;6246190;23;19899;-81
2023/12/20 05:51:31;;;;;;;;;;;6.80;94.30;;;;;;6245622;23;19967;-81
2023/12/20 05:53:56;;;;;;;;;;;6.80;94.30;;;;;;6245227;23;19982;-81
2023/12/20 05:56:22;;;;;;;;;;;6.80;94.20;;;;;;6245435;23;19903;-81
2023/12/20 05:58:48;;;;;;;;;;;6.90;94.20;;;;;;6245805;23;19994;-81
2023/12/20 06:01:19;;;;;;;;;;;6.90;94.20;;;;;;6245326;23;19899;-81
2023/12/20 06:03:45;;;;;;;;;;;6.90;94.20;;;;;;6217557;23;20385;-81
2023/12/20 06:06:12;;;;;;;;;;;6.90;94.20;;;;;;6246034;23;19931;-81
2023/12/20 06:08:38;;;;;;;;;;;6.90;94.30;;;;;;6219866;23;19911;-81
2023/12/20 06:11:04;;;;;;;;;;;7.00;94.30;;;;;;6247525;23;20273;-80
2023/12/20 06:13:30;;;;;;;;;;;7.00;94.30;;;;;;6247382;23;19958;-80
2023/12/20 06:15:55;;;;;;;;;;;7.00;94.40;;;;;;6247663;23;19903;-81
2023/12/20 06:18:21;;;;;;;;;;;7.00;94.40;;;;;;6220150;23;19926;-81
2023/12/20 06:20:46;;;;;;;;;;;7.00;94.40;;;;;;6247488;23;19986;-81
2023/12/20 06:23:12;;;;;;;;;;;7.00;94.40;;;;;;6246684;23;19903;-82
2023/12/20 06:25:38;;;;;;;;;;;7.00;94.50;;;;;;6217842;23;20046;-83
2023/12/20 06:28:04;;;;;;;;;;;7.00;94.50;;;;;;6246997;23;20257;-81
2023/12/20 06:30:32;;;;;;;;;;;7.00;94.50;;;;;;6247344;23;19906;-82
2023/12/20 06:32:58;;;;;;;;;;;7.00;94.50;;;;;;6246500;23;19982;-83
2023/12/20 06:35:24;;;;;;;;;;;7.00;94.50;;;;;;6219148;23;19931;-82
2023/12/20 06:37:50;;;;;;;;;;;6.90;94.70;;;;;;6247407;23;20649;-81
2023/12/20 06:40:16;;;;;;;;;;;7.00;94.50;;;;;;6245446;23;20368;-81
2023/12/20 06:42:41;;;;;;;;;;;7.00;94.40;;;;;;6246806;23;19979;-81
2023/12/20 06:45:07;;;;;;;;;;;7.00;94.30;;;;;;6246174;23;19900;-81
2023/12/20 06:47:32;;;;;;;;;;;7.10;94.20;;;;;;6247369;23;20329;-81
2023/12/20 06:49:58;;;;;;;;;;;7.10;94.00;;;;;;6247502;23;19946;-81
2023/12/20 06:52:24;;;;;;;;;;;7.10;93.90;;;;;;6248011;23;19899;-81
2023/12/20 06:54:49;;;;;;;;;;;7.00;93.90;;;;;;6248377;23;19903;-81
2023/12/20 06:57:15;;;;;;;;;;;7.10;93.80;;;;;;6247762;23;20270;-81
2023/12/20 06:59:40;;;;;;;;;;;7.10;93.70;;;;;;6247633;23;19929;-81
2023/12/20 07:02:06;;;;;;;;;;;7.10;93.70;;;;;;6247370;23;19900;-81
2023/12/20 07:04:32;;;;;;;;;;;7.10;93.70;;;;;;6247700;23;19911;-80
2023/12/20 07:07:00;;;;;;;;;;;7.10;93.70;;;;;;6247814;23;19926;-80
2023/12/20 07:09:26;;;;;;;;;;;7.20;93.70;;;;;;6247230;23;19904;-80
2023/12/20 07:11:51;;;;;;;;;;;7.10;93.70;;;;;;6247550;23;19965;-80
2023/12/20 07:14:17;;;;;;;;;;;7.10;93.70;;;;;;6247135;23;20278;-80
2023/12/20 07:16:42;;;;;;;;;;;7.10;93.70;;;;;;6247006;23;19978;-80
2023/12/20 07:19:08;;;;;;;;;;;7.10;93.80;;;;;;6246970;23;20314;-81
2023/12/20 07:21:34;;;;;;;;;;;7.10;93.90;;;;;;6247667;23;20204;-81
2023/12/20 07:23:59;;;;;;;;;;;7.10;93.90;;;;;;6247222;23;19904;-80
2023/12/20 07:26:25;;;;;;;;;;;7.20;94.00;;;;;;6247538;23;19904;-80
2023/12/20 07:28:50;;;;;;;;;;;7.20;93.90;;;;;;6247504;23;19926;-80
2023/12/20 07:31:16;;;;;;;;;;;7.20;93.90;;;;;;6247290;23;20329;-81
2023/12/20 07:33:42;;;;;;;;;;;7.20;93.80;;;;;;6247208;23;20309;-81
2023/12/20 07:36:07;;;;;;;;;;;7.20;93.90;;;;;;6246858;23;19899;-81
2023/12/20 07:38:33;;;;;;;;;;;7.20;93.90;;;;;;6219329;23;19968;-81
2023/12/20 07:40:59;;;;;;;;;;;7.20;93.60;;;;;;6246600;23;20310;-81
2023/12/20 07:43:24;;;;;;;;;;;7.10;93.70;;;;;;6245948;23;20253;-81
2023/12/20 07:45:50;;;;;;;;;;;7.20;93.80;;;;;;6247545;23;19900;-81
2023/12/20 07:48:15;;;;;;;;;;;7.10;93.90;;;;;;6247278;23;19904;-81
2023/12/20 07:50:42;;;;;;;;;;;7.20;94.00;;;;;;6247202;23;19906;-81
2023/12/20 07:53:07;;;;;;;;;;;7.20;94.00;;;;;;6247351;23;20340;-81
2023/12/20 07:55:34;;;;;;;;;;;7.30;93.90;;;;;;6247422;23;19899;-81
2023/12/20 07:58:00;;;;;;;;;;;7.30;93.80;;;;;;6246116;23;20319;-81
2023/12/20 08:00:25;;;;;;;;;;;7.40;93.70;;;;;;6246986;23;19910;-81
2023/12/20 08:02:51;;;;;;;;;;;7.40;93.60;;;;;;6247094;23;19899;-81
2023/12/20 08:05:16;;;;;;;;;;;7.30;93.50;;;;;;6246828;23;19907;-81
2023/12/20 08:07:42;;;;;;;;;;;7.20;93.60;;;;;;6246797;23;19899;-81
2023/12/20 08:10:08;;;;;;;;;;;7.10;93.70;;;;;;6246543;23;19930;-81
2023/12/20 08:12:34;;;;;;;;;;;7.10;93.80;;;;;;6246742;23;20349;-81
2023/12/20 08:14:59;;;;;;;;;;;7.20;94.10;;;;;;6247034;23;19900;-81
2023/12/20 08:17:25;;;;;;;;;;;7.20;93.90;;;;;;6247137;23;19918;-81
2023/12/20 08:19:50;;;;;;;;;;;7.30;93.90;;;;;;6246447;23;20368;-80
2023/12/20 08:22:16;;;;;;;;;;;7.40;93.80;;;;;;6246375;23;19903;-81
2023/12/20 08:24:42;;;;;;;;;;;7.40;93.80;;;;;;6247068;23;19906;-81
2023/12/20 08:27:09;;;;;;;;;;;7.50;93.80;;;;;;6247209;23;19982;-81
2023/12/20 08:29:34;;;;;;;;;;;7.50;93.90;;;;;;6246886;23;19906;-79
2023/12/20 08:32:00;;;;;;;;;;;7.50;93.80;;;;;;6246699;23;20084;-79
2023/12/20 08:34:26;;;;;;;;;;;7.50;93.70;;;;;;6246587;23;19907;-80
2023/12/20 08:36:51;;;;;;;;;;;7.50;93.80;;;;;;6247055;23;20030;-79
2023/12/20 08:39:17;;;;;;;;;;;7.50;93.90;;;;;;6246702;23;20302;-79
2023/12/20 08:41:42;;;;;;;;;;;7.50;93.90;;;;;;6246952;23;19938;-79
2023/12/20 08:44:09;;;;;;;;;;;7.50;94.00;;;;;;6247165;23;19907;-80
2023/12/20 08:46:35;;;;;;;;;;;7.60;94.10;;;;;;6247162;23;19907;-79
2023/12/20 08:49:01;;;;;;;;;;;7.60;94.10;;;;;;6220031;23;19900;-80
2023/12/20 08:51:27;;;;;;;;;;;7.70;94.00;;;;;;6246486;23;19900;-79
2023/12/20 08:53:53;;;;;;;;;;;7.80;94.00;;;;;;6246654;23;19896;-80
2023/12/20 08:56:18;;;;;;;;;;;7.80;94.00;;;;;;6245088;23;19954;-78
2023/12/20 08:58:44;;;;;;;;;;;7.80;93.90;;;;;;6246424;23;20249;-78
2023/12/20 09:01:10;;;;;;;;;;;7.80;94.10;;;;;;6246634;23;19903;-78
2023/12/20 09:03:36;;;;;;;;;;;7.90;94.00;;;;;;6245057;23;20291;-78
2023/12/20 09:06:01;;;;;;;;;;;7.90;94.00;;;;;;6246640;23;19979;-80
2023/12/20 09:08:27;;;;;;;;;;;8.00;94.10;;;;;;6246489;23;19900;-81
2023/12/20 09:10:52;;;;;;;;;;;8.10;94.10;;;;;;6246306;23;19981;-81
2023/12/20 09:13:18;;;;;;;;;;;8.10;94.10;;;;;;6246209;23;19903;-80
2023/12/20 09:15:44;;;;;;;;;;;8.20;94.10;;;;;;6246836;23;19919;-81
2023/12/20 09:18:09;;;;;;;;;;;8.20;94.10;;;;;;6246516;23;19905;-80
2023/12/20 09:20:35;;;;;;;;;;;8.20;94.00;;;;;;6219518;23;19916;-80
2023/12/20 09:23:00;;;;;;;;;;;8.30;94.00;;;;;;6246413;23;20198;-79
2023/12/20 09:25:26;;;;;;;;;;;8.30;94.00;;;;;;6246564;23;19906;-79
2023/12/20 09:27:52;;;;;;;;;;;8.40;94.00;;;;;;6246525;23;19899;-80
2023/12/20 09:30:18;;;;;;;;;;;8.40;94.00;;;;;;6246477;23;19899;-78
2023/12/20 09:32:43;;;;;;;;;;;8.40;94.00;;;;;;6246861;23;19907;-78
2023/12/20 09:35:09;;;;;;;;;;;8.40;93.70;;;;;;6246235;23;20207;-78
2023/12/20 09:37:34;;;;;;;;;;;8.40;93.80;;;;;;6246390;23;20203;-78
2023/12/20 09:40:00;;;;;;;;;;;8.30;93.80;;;;;;6245517;23;19907;-78
2023/12/20 09:42:38;;;;;;;;;;;8.30;94.00;;;;;;6246086;23;20230;-78
2023/12/20 09:45:07;;;;;;;;;;;8.40;94.10;;;;;;6246410;23;19923;-80
2023/12/20 09:47:32;;;;;;;;;;;8.40;94.10;;;;;;6244486;23;19905;-80
2023/12/20 09:49:58;;;;;;;;;;;8.40;94.20;;;;;;6246405;23;19985;-80
2023/12/20 09:52:24;;;;;;;;;;;8.40;94.20;;;;;;6246112;23;20359;-81
2023/12/20 09:54:50;;;;;;;;;;;8.40;94.20;;;;;;6246331;23;19954;-80
2023/12/20 09:57:15;;;;;;;;;;;8.40;94.20;;;;;;6246384;23;19942;-79
2023/12/20 09:59:41;;;;;;;;;;;8.40;94.30;;;;;;6246140;23;19903;-80
2023/12/20 10:02:09;;;;;;;;;;;8.40;94.20;;;;;;6246288;23;19899;-79
2023/12/20 10:04:35;;;;;;;;;;;8.30;94.40;;;;;;6246059;23;20303;-79
2023/12/20 10:07:04;;;;;;;;;;;8.30;94.50;;;;;;6245727;23;19982;-79
2023/12/20 10:09:31;;;;;;;;;;;8.40;94.50;;;;;;6245316;23;19905;-79
2023/12/20 10:11:57;;;;;;;;;;;8.50;94.60;;;;;;6244981;23;19900;-79
2023/12/20 10:14:24;;;;;;;;;;;8.70;94.60;;;;;;6245386;23;19899;-79
2023/12/20 10:16:49;;;;;;;;;;;8.80;94.50;;;;;;6245748;23;19907;-80
2023/12/20 10:19:19;;;;;;;;;;;8.90;94.40;;;;;;6218432;23;19908;-81
2023/12/20 10:21:45;;;;;;;;;;;9.00;94.20;;;;;;6218788;23;20300;-82
2023/12/20 10:24:16;;;;;;;;;;;9.10;94.10;;;;;;6246057;23;19923;-80
2023/12/20 10:26:42;;;;;;;;;;;9.10;94.00;;;;;;6244911;23;20300;-80
2023/12/20 10:29:07;;;;;;;;;;;9.10;93.80;;;;;;6245651;23;19938;-80
2023/12/20 10:31:33;;;;;;;;;;;9.20;93.90;;;;;;6245075;23;19906;-81
2023/12/20 10:33:59;;;;;;;;;;;9.20;93.90;;;;;;6219205;23;19900;-81
2023/12/20 10:36:28;;;;;;;;;;;9.20;93.70;;;;;;6219208;23;19982;-81
2023/12/20 10:38:55;;;;;;;;;;;9.20;94.10;;;;;;6218843;23;19954;-81
2023/12/20 10:41:24;;;;;;;;;;;9.30;93.80;;;;;;6243801;23;19935;-81
2023/12/20 10:43:51;;;;;;;;;;;9.30;93.70;;;;;;6244907;23;19946;-81
2023/12/20 10:46:18;;;;;;;;;;;9.30;93.70;;;;;;6246076;23;20326;-81
2023/12/20 10:48:45;;;;;;;;;;;9.30;93.80;;;;;;6245561;23;19900;-81
2023/12/20 10:51:11;;;;;;;;;;;9.30;93.80;;;;;;6245812;23;19899;-81
2023/12/20 10:53:37;;;;;;;;;;;9.40;93.70;;;;;;6245728;23;19900;-81
2023/12/20 10:56:04;;;;;;;;;;;9.40;93.80;;;;;;6247578;23;20325;-81
2023/12/20 10:58:32;;;;;;;;;;;9.40;93.90;;;;;;6247263;23;19912;-82
2023/12/20 11:01:00;;;;;;;;;;;9.40;93.90;;;;;;6220330;23;19904;-82
2023/12/20 11:03:26;;;;;;;;;;;9.40;93.90;;;;;;6247396;23;19899;-82
2023/12/20 11:05:55;;;;;;;;;;;9.40;94.00;;;;;;6247609;22;19922;-82
2023/12/20 11:08:25;;;;;;;;;;;9.50;94.00;;;;;;6245713;23;19904;-83
2023/12/20 11:10:59;;;;;;;;;;;9.50;94.00;;;;;;6247758;23;20330;-82
2023/12/20 11:13:28;;;;;;;;;;;9.50;94.00;;;;;;6246247;22;19900;-81
2023/12/20 11:15:54;;;;;;;;;;;9.50;93.90;;;;;;6244957;22;19906;-82
2023/12/20 11:18:28;;;;;;;;;;;9.40;94.10;;;;;;6220765;23;19906;-82
2023/12/20 11:20:54;;;;;;;;;;;9.40;94.30;;;;;;6220848;23;19910;-81
2023/12/20 11:23:19;;;;;;;;;;;9.40;94.30;;;;;;6247426;23;19979;-82
2023/12/20 11:25:46;;;;;;;;;;;9.40;94.30;;;;;;6247160;23;19957;-83
2023/12/20 11:28:12;;;;;;;;;;;9.30;94.30;;;;;;6219857;23;19950;-81
2023/12/20 11:30:42;;;;;;;;;;;9.30;94.30;;;;;;6220018;23;19982;-82
2023/12/20 11:33:08;;;;;;;;;;;9.40;94.50;;;;;;6247246;23;19903;-82
2023/12/20 11:35:35;;;;;;;;;;;9.40;94.50;;;;;;6247408;23;20266;-82
2023/12/20 11:38:00;;;;;;;;;;;9.40;94.50;;;;;;6247632;23;19949;-82
2023/12/20 11:40:26;;;;;;;;;;;9.40;94.50;;;;;;6247360;23;19903;-82
2023/12/20 11:42:53;;;;;;;;;;;9.40;94.50;;;;;;6247404;23;19906;-82
2023/12/20 11:45:24;;;;;;;;;;;9.30;94.60;;;;;;6247393;23;19907;-82
2023/12/20 11:47:50;;;;;;;;;;;9.30;94.70;;;;;;6247127;23;20310;-83
2023/12/20 11:50:17;;;;;;;;;;;9.40;94.70;;;;;;6220047;23;19934;-82
2023/12/20 11:52:43;;;;;;;;;;;9.40;94.60;;;;;;6247426;23;19962;-82
2023/12/20 11:55:10;;;;;;;;;;;9.40;94.60;;;;;;6245867;23;19903;-82
2023/12/20 11:57:36;;;;;;;;;;;9.30;94.90;;;;;;6249411;22;20321;-82
2023/12/20 12:00:02;;;;;;;;;;;9.30;95.00;;;;;;6244586;23;19919;-82
2023/12/20 12:02:28;;;;;;;;;;;9.30;95.30;;;;;;6244547;23;19904;-82
2023/12/20 12:04:53;;;;;;;;;;;9.30;95.40;;;;;;6245481;23;20233;-83
2023/12/20 12:07:20;;;;;;;;;;;9.30;95.50;;;;;;6246784;23;19907;-82
2023/12/20 12:09:46;;;;;;;;;;;9.30;95.50;;;;;;6244966;23;19978;-82
2023/12/20 12:12:12;;;;;;;;;;;9.30;95.50;;;;;;6246517;23;19975;-82
2023/12/20 12:14:38;;;;;;;;;;;9.30;95.60;;;;;;6219463;23;19899;-82
2023/12/20 12:17:13;;;;;;;;;;;9.30;95.80;;;;;;6246887;23;19907;-81
2023/12/20 12:19:39;;;;;;;;;;;9.40;95.80;;;;;;6219655;23;19926;-82
2023/12/20 12:22:07;;;;;;;;;;;9.30;96.00;;;;;;6246869;23;20290;-81
2023/12/20 12:24:32;;;;;;;;;;;9.40;96.10;;;;;;6220290;23;19978;-82
2023/12/20 12:26:58;;;;;;;;;;;9.40;96.10;;;;;;6246966;23;19931;-82
2023/12/20 12:29:27;;;;;;;;;;;9.40;96.20;;;;;;6246298;23;19907;-81
2023/12/20 12:31:52;;;;;;;;;;;9.40;96.30;;;;;;6246906;23;20306;-81
2023/12/20 12:34:18;;;;;;;;;;;9.40;96.20;;;;;;6247005;23;19974;-81
2023/12/20 12:36:44;;;;;;;;;;;9.50;96.10;;;;;;6246891;23;19931;-81
2023/12/20 12:39:15;;;;;;;;;;;9.40;96.10;;;;;;6246868;23;20321;-81
2023/12/20 12:41:41;;;;;;;;;;;9.40;96.00;;;;;;6246515;23;19931;-81
2023/12/20 12:44:06;;;;;;;;;;;9.50;96.10;;;;;;6220262;23;19958;-81
2023/12/20 12:46:32;;;;;;;;;;;9.50;96.10;;;;;;6246830;23;19978;-81
2023/12/20 12:48:58;;;;;;;;;;;9.50;96.10;;;;;;6246479;23;19900;-81
2023/12/20 12:51:23;;;;;;;;;;;9.60;96.10;;;;;;6246770;23;19900;-81
2023/12/20 12:53:49;;;;;;;;;;;9.70;96.10;;;;;;6246641;23;19899;-81
2023/12/20 12:56:15;;;;;;;;;;;9.70;96.10;;;;;;6244989;23;19900;-80
2023/12/20 12:58:41;;;;;;;;;;;9.70;96.20;;;;;;6245438;23;20368;-81
2023/12/20 13:01:07;;;;;;;;;;;9.60;96.30;;;;;;6246055;23;19934;-80
2023/12/20 13:03:35;;;;;;;;;;;9.60;96.30;;;;;;6245219;23;19900;-80
2023/12/20 13:06:01;;;;;;;;;;;9.70;96.30;;;;;;6218049;23;19953;-81
2023/12/20 13:08:27;;;;;;;;;;;9.60;96.30;;;;;;6245811;23;19900;-81
2023/12/20 13:10:58;;;;;;;;;;;9.70;96.30;;;;;;6244941;23;19982;-81
2023/12/20 13:13:23;;;;;;;;;;;9.70;96.20;;;;;;6244879;23;20489;-81
2023/12/20 13:15:52;;;;;;;;;;;9.70;96.20;;;;;;6217158;23;20076;-80
2023/12/20 13:18:18;;;;;;;;;;;9.70;96.20;;;;;;6244981;23;19946;-81
2023/12/20 13:20:44;;;;;;;;;;;9.70;96.20;;;;;;6245116;23;19903;-81
2023/12/20 13:23:10;;;;;;;;;;;9.70;96.20;;;;;;6217841;23;19899;-81
2023/12/20 13:25:35;;;;;;;;;;;9.70;96.20;;;;;;6244951;23;20318;-81
2023/12/20 13:28:02;;;;;;;;;;;9.70;96.10;;;;;;6217600;23;19904;-82
2023/12/20 13:30:28;;;;;;;;;;;9.70;96.20;;;;;;6217632;23;19941;-81
2023/12/20 13:32:53;;;;;;;;;;;9.70;96.20;;;;;;6245074;23;19903;-82
2023/12/20 13:35:20;;;;;;;;;;;9.70;96.20;;;;;;6244935;23;19903;-82
2023/12/20 13:37:46;;;;;;;;;;;9.60;96.30;;;;;;6245568;23;20385;-82
2023/12/20 13:40:12;;;;;;;;;;;9.70;96.30;;;;;;6245314;23;19931;-83
2023/12/20 13:42:38;;;;;;;;;;;9.70;96.30;;;;;;6218648;23;19900;-81
2023/12/20 13:45:04;;;;;;;;;;;9.70;96.40;;;;;;6245474;23;19900;-81
2023/12/20 13:47:30;;;;;;;;;;;9.70;96.40;;;;;;6245238;23;19931;-81
2023/12/20 13:49:56;;;;;;;;;;;9.70;96.50;;;;;;6245325;23;19945;-81
2023/12/20 13:52:21;;;;;;;;;;;9.80;96.50;;;;;;6245608;23;20371;-82
2023/12/20 13:54:47;;;;;;;;;;;9.80;96.60;;;;;;6244132;23;19903;-80
2023/12/20 13:57:13;;;;;;;;;;;9.80;96.50;;;;;;6239411;23;20233;-80
2023/12/20 13:59:38;;;;;;;;;;;9.90;96.50;;;;;;6213243;23;19908;-80
2023/12/20 14:02:04;;;;;;;;;;;10.00;96.50;;;;;;6215665;23;19900;-80
2023/12/20 14:04:31;;;;;;;;;;;10.00;96.40;;;;;;6188559;23;19985;-80
2023/12/20 14:06:57;;;;;;;;;;;10.00;96.30;;;;;;6214880;23;19904;-80
2023/12/20 14:09:22;;;;;;;;;;;10.00;96.30;;;;;;6215028;23;20269;-81
2023/12/20 14:11:48;;;;;;;;;;;10.00;96.30;;;;;;6214721;23;19900;-81
2023/12/20 14:14:13;;;;;;;;;;;10.00;96.30;;;;;;6215197;23;19907;-81
2023/12/20 14:16:39;;;;;;;;;;;10.00;96.30;;;;;;6215233;23;19947;-81
2023/12/20 14:19:07;;;;;;;;;;;10.10;96.30;;;;;;6215085;23;19991;-81
2023/12/20 14:21:33;;;;;;;;;;;10.10;96.30;;;;;;6188925;23;19900;-81